Terminal Aerodrome Forecast
Issued by NWS Jackson, MS

Home | Current Version | Previous Version | Text Only | Print | Product List | Glossary On
Versions: 1 2 3 4 5 6 7 8 9 10 11 12
898
FTUS44 KJAN 241120
TAFGWO
TAF
KGWO 241120Z 2412/2512 16013KT P6SM BKN025 BKN250
     FM241800 17017G26KT P6SM BKN050
     FM250200 16017G27KT P6SM BKN025 BKN250
     FM250400 16016G26KT P6SM VCSH BKN025 BKN250
     FM250700 17016KT 5SM -TSRA OVC025CB=

USA.gov is the U.S. government's official web portal to all federal, state and local government web resources and services.